createdAt,value
2018-01-18T10:11:05.485Z,7.20
2018-01-18T10:13:33.247Z,7.30
2018-01-18T10:16:00.992Z,7.50
2018-01-18T10:18:28.819Z,7.70
2018-01-18T12:16:15.765Z,10.90
2018-01-18T12:19:09.138Z,11.50
2018-01-18T12:24:44.329Z,12.50
2018-01-18T12:30:20.072Z,13.10
2018-01-18T12:33:07.999Z,13.00
2018-01-18T12:35:56.366Z,12.90
2018-01-18T12:38:32.047Z,13.10
2018-01-18T12:41:05.663Z,13.40
2018-01-18T12:43:52.498Z,13.70
2018-01-18T12:46:34.939Z,13.30
2018-01-18T12:49:28.639Z,13.20
2018-01-18T12:52:22.286Z,13.00
2018-01-18T12:54:52.279Z,12.30
2018-01-18T12:57:20.125Z,12.30
2018-01-18T12:59:48.012Z,12.40
2018-01-18T13:02:15.887Z,12.60
2018-01-18T13:04:43.633Z,12.90
2018-01-18T13:07:11.405Z,12.90
2018-01-18T13:09:39.976Z,12.40
2018-01-18T13:12:07.713Z,12.30
2018-01-18T13:14:36.240Z,11.70
2018-01-18T13:17:04.039Z,11.70
2018-01-18T13:19:31.766Z,11.60
2018-01-18T13:21:59.608Z,11.30
2018-01-18T13:24:28.121Z,11.00
2018-01-18T13:26:55.834Z,10.90
2018-01-18T13:29:24.389Z,10.80
2018-01-18T13:31:52.109Z,10.70
2018-01-18T13:34:19.900Z,10.70
2018-01-18T13:36:47.632Z,10.50
2018-01-18T13:39:15.467Z,10.40
2018-01-18T13:41:43.197Z,10.50
2018-01-18T13:44:10.965Z,10.50
2018-01-18T13:46:38.696Z,10.60
2018-01-18T13:49:06.546Z,10.60
2018-01-18T13:51:35.039Z,10.30
2018-01-18T13:54:02.841Z,10.30
2018-01-18T13:56:30.629Z,10.30
2018-01-18T13:58:59.288Z,10.20
2018-01-18T14:01:27.085Z,10.10
2018-01-18T14:03:55.577Z,10.30
2018-01-18T14:06:24.198Z,10.40
2018-01-18T14:08:51.949Z,10.40
2018-01-18T14:11:19.720Z,10.60
2018-01-18T14:13:47.523Z,10.90
2018-01-18T14:16:15.241Z,11.10
2018-01-18T14:18:43.003Z,11.00
2018-01-18T14:21:10.789Z,11.10
2018-01-18T14:23:38.529Z,11.00
2018-01-18T14:26:06.337Z,10.70
2018-01-18T14:28:34.108Z,10.20
2018-01-18T14:31:01.818Z,10.10
2018-01-18T14:33:29.521Z,9.90
2018-01-18T14:35:57.311Z,9.70
2018-01-18T14:38:25.025Z,9.80
2018-01-18T14:40:52.728Z,9.70
2018-01-18T14:43:20.538Z,9.60
2018-01-18T14:45:48.316Z,9.60
2018-01-18T14:48:16.130Z,9.50
2018-01-18T14:50:43.859Z,9.30
2018-01-18T14:53:11.696Z,9.30
2018-01-18T14:55:39.424Z,9.20
2018-01-18T14:58:07.120Z,9.20
2018-01-18T15:00:34.912Z,9.20
2018-01-18T15:03:02.655Z,9.20
2018-01-18T15:05:30.437Z,9.20
2018-01-18T15:07:58.175Z,9.20
2018-01-18T15:10:25.955Z,9.10
2018-01-18T15:12:53.753Z,8.90
2018-01-18T15:15:21.535Z,8.80
2018-01-18T15:17:49.298Z,8.80
2018-01-18T15:20:17.257Z,8.70
2018-01-18T15:22:45.039Z,8.60
2018-01-18T15:25:12.838Z,8.60
2018-01-18T15:27:45.591Z,8.50
2018-01-18T15:30:13.572Z,8.40
2018-01-18T15:32:41.366Z,8.50
2018-01-18T15:35:09.148Z,8.40
2018-01-18T15:37:42.937Z,8.30
2018-01-18T15:40:10.835Z,8.20
2018-01-18T15:42:44.647Z,8.30
2018-01-18T15:45:13.988Z,8.20
2018-01-18T15:47:41.845Z,8.10
2018-01-18T15:50:09.637Z,8.00
2018-01-18T15:52:37.386Z,7.90
2018-01-18T15:55:05.255Z,7.90
2018-01-18T15:57:33.057Z,7.80
2018-01-18T16:00:00.846Z,7.80
2018-01-18T16:02:55.291Z,7.80
2018-01-18T16:05:30.233Z,7.60
2018-01-18T16:07:57.938Z,7.60
2018-01-18T16:10:25.731Z,7.50
2018-01-18T16:12:54.341Z,7.50
2018-01-18T16:15:22.141Z,7.40
2018-01-18T16:17:49.995Z,7.40
2018-01-18T16:20:17.767Z,7.30
2018-01-18T16:22:45.588Z,7.40
2018-01-18T16:25:13.368Z,7.30
2018-01-18T16:27:41.103Z,7.30
2018-01-18T16:30:09.589Z,7.10
2018-01-18T16:32:38.120Z,7.10
2018-01-18T16:35:07.085Z,7.10
2018-01-18T16:37:35.043Z,7.10
2018-01-18T16:40:02.782Z,7.00
2018-01-18T16:42:31.485Z,6.90
2018-01-18T16:44:59.204Z,6.80
2018-01-18T16:47:26.929Z,6.80
2018-01-18T16:49:54.817Z,6.70
2018-01-18T16:52:22.555Z,6.70
2018-01-18T16:54:50.334Z,6.60
2018-01-18T16:57:18.047Z,6.60
2018-01-18T16:59:45.911Z,6.60
2018-01-18T17:02:13.651Z,6.60
2018-01-18T17:04:41.439Z,6.50
2018-01-18T17:07:09.948Z,6.40
2018-01-18T17:09:37.707Z,6.30
2018-01-18T17:12:05.420Z,6.30
2018-01-18T17:14:33.224Z,6.20
2018-01-18T17:17:01.766Z,6.10
2018-01-18T17:19:29.484Z,6.00
2018-01-18T17:21:57.321Z,6.00
2018-01-18T17:24:25.065Z,6.00
